| time (UTC) | temp C | wind direction | speed KPH | gust KPH | rain 1hr cm | rain 24hr cm | rain mn cm | humidity % | barometer mb |
| 20260506211545 | 8 | 219 | 4.8 | 22.5 | 0.00 | 2.59 | 2.51 | 18 | 1003.8 |
| 20260506210037 | 8 | 252 | 11.3 | 24.1 | 0.00 | 2.59 | 2.51 | 20 | 1003.9 |
| 20260506204534 | 8 | 226 | 8.0 | 37.0 | 0.00 | 2.59 | 2.51 | 25 | 1004.0 |
| 20260506203030 | 8 | 255 | 12.9 | 35.4 | 0.00 | 2.59 | 2.51 | 29 | 1004.1 |
| 20260506201525 | 8 | 190 | 6.4 | 25.7 | 0.00 | 2.59 | 2.51 | 25 | 1003.8 |
| 20260506200021 | 8 | 222 | 8.0 | 25.7 | 0.03 | 2.59 | 2.51 | 21 | 1003.9 |
| 20260506194513 | 8 | 194 | 11.3 | 20.9 | 0.03 | 2.59 | 2.51 | 19 | 1003.8 |
| 20260506193008 | 8 | 296 | 12.9 | 25.7 | 0.05 | 2.59 | 2.51 | 15 | 1003.3 |
| 20260506191504 | 8 | 273 | 1.6 | 16.1 | 0.05 | 2.59 | 2.51 | 9 | 1003.0 |
| 20260506190059 | 8 | 231 | 6.4 | 25.7 | 0.05 | 2.59 | 2.49 | 8 | 1002.7 |
| 20260506184552 | 8 | 242 | 12.9 | 38.6 | 0.05 | 2.59 | 2.49 | 8 | 1002.5 |
| 20260506183052 | 8 | 345 | 4.8 | 24.1 | 0.33 | 2.59 | 2.46 | 10 | 1002.4 |
| 20260506181554 | 8 | 240 | 9.7 | 24.1 | 0.43 | 2.59 | 2.46 | 15 | 1002.7 |
| 20260506180053 | 8 | 243 | 11.3 | 29.0 | 0.46 | 2.59 | 2.46 | 17 | 1002.7 |
| 20260506174531 | 8 | 263 | 9.7 | 27.4 | 0.46 | 2.59 | 2.46 | 19 | 1002.5 |
| 20260506173028 | 9 | 267 | 8.0 | 17.7 | 0.10 | 2.29 | 2.11 | 11 | 1002.6 |
| 20260506171524 | 9 | 285 | 4.8 | 16.1 | 0.00 | 2.18 | 2.01 | 11 | 1002.1 |
| 20260506170018 | 9 | 317 | 4.8 | 16.1 | 0.00 | 2.18 | 2.01 | 9 | 1002.1 |
| 20260506164512 | 9 | 269 | 11.3 | 41.8 | 0.00 | 2.18 | 2.01 | 6 | 1002.3 |
| 20260506163009 | 9 | 264 | 6.4 | 16.1 | 0.00 | 2.31 | 2.01 | 4 | 1002.6 |
| 20260506161502 | 9 | 239 | 6.4 | 17.7 | 0.00 | 2.31 | 2.01 | 4 | 1002.8 |
| 20260506154551 | 9 | 325 | 3.2 | 20.9 | 0.00 | 2.31 | 2.01 | 4 | 1002.8 |
| 20260506153046 | 9 | 205 | 4.8 | 22.5 | 0.00 | 2.34 | 2.01 | 4 | 1002.9 |
| 20260506151546 | 10 | 286 | 4.8 | 25.7 | 0.00 | 2.34 | 2.01 | 4 | 1003.1 |
| 20260506150037 | 9 | 254 | 11.3 | 20.9 | 0.08 | 2.34 | 2.01 | 5 | 1003.3 |
| 20260506144536 | 9 | 234 | 9.7 | 19.3 | 0.15 | 2.34 | 2.01 | 5 | 1003.2 |
| 20260506143029 | 9 | 284 | 4.8 | 20.9 | 0.15 | 2.39 | 2.01 | 5 | 1003.1 |
| 20260506141531 | 8 | 291 | 1.6 | 20.9 | 0.15 | 2.39 | 2.01 | 5 | 1003.3 |
| 20260506140021 | 8 | 254 | 4.8 | 17.7 | 0.08 | 2.31 | 1.93 | 6 | 1003.2 |
| 20260506134545 | 8 | 237 | 4.8 | 25.7 | 0.05 | 2.24 | 1.85 | 6 | 1003.4 |
| 20260506133044 | 8 | 229 | 8.0 | 16.1 | 0.08 | 2.21 | 1.83 | 6 | 1003.7 |
| 20260506131533 | 8 | 284 | 8.0 | 22.5 | 0.15 | 2.21 | 1.83 | 6 | 1003.8 |
| 20260506130028 | 9 | 244 | 4.8 | 19.3 | 0.23 | 2.21 | 1.83 | 5 | 1003.9 |
| 20260506124525 | 9 | 221 | 1.6 | 12.9 | 0.23 | 2.21 | 1.83 | 5 | 1003.6 |
| 20260506123021 | 8 | 317 | 4.8 | 12.9 | 0.20 | 2.21 | 1.75 | 6 | 1003.7 |
| 20260506121513 | 8 | 192 | 3.2 | 11.3 | 0.13 | 2.11 | 1.65 | 6 | 1003.6 |
| 20260506120021 | 8 | 149 | 6.4 | 16.1 | 0.05 | 2.06 | 1.60 | 7 | 1003.8 |
| 20260506114506 | 8 | 265 | 4.8 | 29.0 | 0.05 | 2.03 | 1.57 | 7 | 1003.8 |
| 20260506113101 | 8 | 196 | 6.4 | 27.4 | 0.05 | 2.06 | 1.55 | 7 | 1003.6 |
| 20260506111552 | 8 | 345 | 4.8 | 19.3 | 0.05 | 2.06 | 1.55 | 7 | 1003.6 |
| 20260506110048 | 8 | 28 | 4.8 | 30.6 | 0.05 | 2.03 | 1.55 | 7 | 1003.7 |
| 20260506104548 | 8 | 221 | 8.0 | 24.1 | 0.08 | 2.03 | 1.55 | 7 | 1003.9 |
| 20260506103040 | 8 | 223 | 4.8 | 16.1 | 0.15 | 2.03 | 1.52 | 7 | 1004.0 |
| 20260506101532 | 8 | 315 | 3.2 | 19.3 | 0.30 | 2.01 | 1.50 | 9 | 1004.2 |
| 20260506100028 | 8 | 181 | 3.2 | 11.3 | 0.41 | 1.98 | 1.45 | 10 | 1004.3 |
| 20260506094524 | 8 | 130 | 1.6 | 8.0 | 0.48 | 1.96 | 1.42 | 12 | 1004.3 |
| 20260506093025 | 8 | 250 | 0.0 | 3.2 | 0.48 | 1.85 | 1.37 | 11 | 1004.3 |
| 20260506091548 | 8 | 38 | 0.0 | 11.3 | 0.43 | 1.70 | 1.19 | 12 | 1004.3 |
| 20260506090041 | 8 | 212 | 0.0 | 4.8 | 0.43 | 1.57 | 1.09 | 12 | 1004.4 |
| 20260506084538 | 8 | 258 | 0.0 | 11.3 | 0.46 | 1.45 | 0.99 | 13 | 1004.2 |
| 20260506083030 | 8 | 273 | 3.2 | 14.5 | 0.46 | 1.37 | 0.89 | 16 | 1004.2 |
| 20260506081526 | 8 | 284 | 1.6 | 14.5 | 0.43 | 1.27 | 0.76 | 17 | 1003.9 |
| 20260506073010 | 9 | 129 | 1.6 | 11.3 | 0.41 | 0.89 | 0.41 | 8 | 1003.8 |
| 20260506071505 | 8 | 191 | 0.0 | 8.0 | 0.33 | 0.84 | 0.33 | 8 | 1003.9 |
| 20260506061545 | 8 | 207 | 0.0 | 6.4 | 0.05 | 0.51 | 0.51 | 13 | 1003.9 |
| 20260506044524 | 8 | 260 | 1.6 | 4.8 | 0.00 | 0.43 | 0.43 | 18 | 1003.8 |
| 20260506043009 | 7 | 252 | 3.2 | 11.3 | 0.00 | 0.43 | 0.43 | 23 | 1003.7 |
| 20260506041505 | 8 | 225 | 0.0 | 3.2 | 0.00 | 0.43 | 0.43 | 24 | 1003.8 |
| 20260506040005 | 8 | 227 | 3.2 | 6.4 | 0.00 | 0.43 | 0.43 | 23 | 1003.8 |
| 20260506034602 | 8 | 230 | 4.8 | 16.1 | 0.00 | 0.43 | 0.43 | 22 | 1003.9 |
| 20260506033108 | 8 | 284 | 3.2 | 14.5 | 0.00 | 0.43 | 0.43 | 21 | 1003.8 |
| 20260506031552 | 8 | 280 | 3.2 | 11.3 | 0.00 | 0.43 | 0.43 | 20 | 1003.9 |
| 20260506030051 | 8 | 243 | 6.4 | 20.9 | 0.00 | 0.43 | 0.43 | 18 | 1003.9 |
| 20260506024539 | 8 | 256 | 6.4 | 16.1 | 0.00 | 0.43 | 0.43 | 20 | 1004.0 |
| 20260506023032 | 8 | 242 | 4.8 | 19.3 | 0.00 | 0.43 | 0.43 | 21 | 1004.1 |
| 20260506021528 | 8 | 261 | 8.0 | 24.1 | 0.00 | 0.43 | 0.43 | 21 | 1004.3 |
| 20260506020025 | 8 | 225 | 8.0 | 17.7 | 0.00 | 0.43 | 0.43 | 20 | 1004.2 |
| 20260506014518 | 8 | 208 | 9.7 | 25.7 | 0.00 | 0.43 | 0.43 | 14 | 1004.5 |
| 20260506013015 | 8 | 267 | 8.0 | 22.5 | 0.00 | 0.43 | 0.43 | 12 | 1004.3 |
| 20260506011523 | 8 | 247 | 9.7 | 24.1 | 0.00 | 0.43 | 0.43 | 10 | 1004.0 |
| 20260506010004 | 8 | 213 | 6.4 | 17.7 | 0.00 | 0.43 | 0.43 | 10 | 1003.9 |
| 20260506004600 | 8 | 263 | 3.2 | 19.3 | 0.00 | 0.43 | 0.43 | 9 | 1004.0 |
| 20260506003056 | 8 | 217 | 8.0 | 20.9 | 0.00 | 0.43 | 0.43 | 9 | 1004.0 |
| 20260506001548 | 8 | 205 | 9.7 | 25.7 | 0.00 | 0.43 | 0.43 | 9 | 1004.1 |
| 20260506000053 | 8 | 227 | 11.3 | 24.1 | 0.00 | 0.43 | 0.43 | 9 | 1004.1 |
| 20260505234540 | 8 | 283 | 8.0 | 20.9 | 0.00 | 0.43 | 0.43 | 9 | 1004.2 |
| 20260505233034 | 8 | 236 | 8.0 | 22.5 | 0.00 | 0.43 | 0.43 | 9 | 1004.6 |
| 20260505231537 | 8 | 219 | 8.0 | 24.1 | 0.00 | 0.43 | 0.43 | 9 | 1004.7 |
| 20260505230026 | 8 | 132 | 6.4 | 20.9 | 0.00 | 0.43 | 0.43 | 9 | 1004.8 |
| 20260505224519 | 8 | 300 | 6.4 | 20.9 | 0.00 | 0.43 | 0.43 | 10 | 1004.7 |
| 20260505223017 | 8 | 300 | 6.4 | 20.9 | 0.00 | 0.43 | 0.43 | 10 | 1004.7 |
| 20260505221508 | 8 | 242 | 4.8 | 24.1 | 0.00 | 0.43 | 0.43 | 10 | 1004.8 |
| 20260505220003 | 8 | 166 | 8.0 | 22.5 | 0.00 | 0.43 | 0.43 | 10 | 1005.0 |
| 20260505214603 | 8 | 209 | 6.4 | 20.9 | 0.00 | 0.43 | 0.43 | 10 | 1005.0 |
| 20260505213024 | 8 | 300 | 3.2 | 20.9 | 0.00 | 0.43 | 0.43 | 10 | 1005.1 |